sensor_id;sensor_type;location;lat;lon;timestamp;P1;durP1;ratioP1;P2;durP2;ratioP2
12369;SDS011;6249;52.128;9.986;2023-04-24T00:02:12;4.77;;;1.60;;
12369;SDS011;6249;52.128;9.986;2023-04-24T00:05:32;3.27;;;1.23;;
12369;SDS011;6249;52.128;9.986;2023-04-24T00:08:53;6.93;;;1.27;;
12369;SDS011;6249;52.128;9.986;2023-04-24T00:12:15;3.53;;;1.40;;
12369;SDS011;6249;52.128;9.986;2023-04-24T00:15:35;2.83;;;1.37;;
12369;SDS011;6249;52.128;9.986;2023-04-24T00:18:56;2.97;;;1.23;;
12369;SDS011;6249;52.128;9.986;2023-04-24T00:22:17;3.77;;;1.13;;
12369;SDS011;6249;52.128;9.986;2023-04-24T00:25:37;3.00;;;1.30;;
12369;SDS011;6249;52.128;9.986;2023-04-24T00:28:58;2.80;;;1.30;;
12369;SDS011;6249;52.128;9.986;2023-04-24T00:32:19;5.40;;;1.80;;
12369;SDS011;6249;52.128;9.986;2023-04-24T00:35:39;2.80;;;1.27;;
12369;SDS011;6249;52.128;9.986;2023-04-24T00:39:02;3.80;;;1.53;;
12369;SDS011;6249;52.128;9.986;2023-04-24T00:42:23;3.90;;;1.47;;
12369;SDS011;6249;52.128;9.986;2023-04-24T00:45:44;2.53;;;1.20;;
12369;SDS011;6249;52.128;9.986;2023-04-24T00:49:07;4.97;;;1.40;;
12369;SDS011;6249;52.128;9.986;2023-04-24T00:52:30;4.23;;;1.50;;
12369;SDS011;6249;52.128;9.986;2023-04-24T00:55:52;5.77;;;1.70;;
12369;SDS011;6249;52.128;9.986;2023-04-24T00:59:14;3.63;;;1.27;;
12369;SDS011;6249;52.128;9.986;2023-04-24T01:02:41;3.17;;;1.37;;
12369;SDS011;6249;52.128;9.986;2023-04-24T01:06:05;3.73;;;1.40;;
12369;SDS011;6249;52.128;9.986;2023-04-24T01:09:26;3.30;;;1.43;;
12369;SDS011;6249;52.128;9.986;2023-04-24T01:12:46;6.77;;;2.10;;
12369;SDS011;6249;52.128;9.986;2023-04-24T01:16:09;2.97;;;1.63;;
12369;SDS011;6249;52.128;9.986;2023-04-24T01:19:30;7.73;;;2.00;;
12369;SDS011;6249;52.128;9.986;2023-04-24T01:22:51;3.33;;;1.97;;
12369;SDS011;6249;52.128;9.986;2023-04-24T01:26:14;4.27;;;2.00;;
12369;SDS011;6249;52.128;9.986;2023-04-24T01:29:35;5.63;;;1.50;;
12369;SDS011;6249;52.128;9.986;2023-04-24T01:32:59;3.80;;;1.50;;
12369;SDS011;6249;52.128;9.986;2023-04-24T01:36:20;5.67;;;1.40;;
12369;SDS011;6249;52.128;9.986;2023-04-24T01:39:44;3.07;;;1.50;;
12369;SDS011;6249;52.128;9.986;2023-04-24T01:43:04;4.70;;;1.13;;
12369;SDS011;6249;52.128;9.986;2023-04-24T01:46:25;2.93;;;1.30;;
12369;SDS011;6249;52.128;9.986;2023-04-24T01:49:49;3.83;;;1.33;;
12369;SDS011;6249;52.128;9.986;2023-04-24T01:53:12;3.50;;;1.40;;
12369;SDS011;6249;52.128;9.986;2023-04-24T01:56:35;4.63;;;1.30;;
12369;SDS011;6249;52.128;9.986;2023-04-24T01:59:59;3.13;;;1.20;;
12369;SDS011;6249;52.128;9.986;2023-04-24T02:03:20;5.00;;;1.27;;
12369;SDS011;6249;52.128;9.986;2023-04-24T02:06:40;4.10;;;1.20;;
12369;SDS011;6249;52.128;9.986;2023-04-24T02:10:01;3.80;;;1.40;;
12369;SDS011;6249;52.128;9.986;2023-04-24T02:13:23;3.17;;;1.07;;
12369;SDS011;6249;52.128;9.986;2023-04-24T02:16:46;3.47;;;1.13;;
12369;SDS011;6249;52.128;9.986;2023-04-24T02:20:09;2.87;;;1.40;;
12369;SDS011;6249;52.128;9.986;2023-04-24T02:23:30;4.30;;;1.63;;
12369;SDS011;6249;52.128;9.986;2023-04-24T02:26:53;2.50;;;1.20;;
12369;SDS011;6249;52.128;9.986;2023-04-24T02:30:13;2.00;;;0.90;;
12369;SDS011;6249;52.128;9.986;2023-04-24T02:33:36;3.10;;;1.20;;
12369;SDS011;6249;52.128;9.986;2023-04-24T02:36:59;2.63;;;1.10;;
12369;SDS011;6249;52.128;9.986;2023-04-24T02:40:20;9.63;;;1.40;;
12369;SDS011;6249;52.128;9.986;2023-04-24T02:43:41;3.57;;;0.97;;
12369;SDS011;6249;52.128;9.986;2023-04-24T02:47:04;5.37;;;1.50;;
12369;SDS011;6249;52.128;9.986;2023-04-24T02:50:27;9.33;;;1.30;;
12369;SDS011;6249;52.128;9.986;2023-04-24T02:53:48;3.20;;;1.20;;
12369;SDS011;6249;52.128;9.986;2023-04-24T02:57:11;3.40;;;1.30;;
12369;SDS011;6249;52.128;9.986;2023-04-24T03:00:31;2.50;;;1.10;;
12369;SDS011;6249;52.128;9.986;2023-04-24T03:03:52;2.30;;;0.80;;
12369;SDS011;6249;52.128;9.986;2023-04-24T03:07:12;3.73;;;1.10;;
12369;SDS011;6249;52.128;9.986;2023-04-24T03:10:34;4.30;;;0.90;;
12369;SDS011;6249;52.128;9.986;2023-04-24T03:13:57;7.00;;;1.17;;
12369;SDS011;6249;52.128;9.986;2023-04-24T03:17:20;2.47;;;0.90;;
12369;SDS011;6249;52.128;9.986;2023-04-24T03:20:40;3.50;;;0.83;;
12369;SDS011;6249;52.128;9.986;2023-04-24T03:24:01;2.53;;;0.90;;
12369;SDS011;6249;52.128;9.986;2023-04-24T03:27:24;2.50;;;0.90;;
12369;SDS011;6249;52.128;9.986;2023-04-24T03:30:44;2.53;;;0.90;;
12369;SDS011;6249;52.128;9.986;2023-04-24T03:34:05;3.83;;;1.00;;
12369;SDS011;6249;52.128;9.986;2023-04-24T03:37:25;2.20;;;0.87;;
12369;SDS011;6249;52.128;9.986;2023-04-24T03:40:48;3.27;;;1.00;;
12369;SDS011;6249;52.128;9.986;2023-04-24T03:44:09;2.47;;;0.90;;
12369;SDS011;6249;52.128;9.986;2023-04-24T03:47:30;2.30;;;0.90;;
12369;SDS011;6249;52.128;9.986;2023-04-24T03:50:57;3.93;;;0.97;;
12369;SDS011;6249;52.128;9.986;2023-04-24T03:54:18;4.20;;;1.00;;
12369;SDS011;6249;52.128;9.986;2023-04-24T03:57:40;3.90;;;1.50;;
12369;SDS011;6249;52.128;9.986;2023-04-24T04:01:03;3.90;;;1.00;;
12369;SDS011;6249;52.128;9.986;2023-04-24T04:04:23;1.97;;;0.70;;
12369;SDS011;6249;52.128;9.986;2023-04-24T04:07:46;2.57;;;1.00;;
12369;SDS011;6249;52.128;9.986;2023-04-24T04:11:07;3.00;;;0.70;;
12369;SDS011;6249;52.128;9.986;2023-04-24T04:14:27;6.97;;;1.47;;
12369;SDS011;6249;52.128;9.986;2023-04-24T04:17:48;4.43;;;0.97;;
12369;SDS011;6249;52.128;9.986;2023-04-24T04:21:09;2.00;;;0.73;;
12369;SDS011;6249;52.128;9.986;2023-04-24T04:24:32;2.83;;;1.00;;
12369;SDS011;6249;52.128;9.986;2023-04-24T04:27:52;5.20;;;1.10;;
12369;SDS011;6249;52.128;9.986;2023-04-24T04:31:13;6.77;;;1.03;;
12369;SDS011;6249;52.128;9.986;2023-04-24T04:34:36;2.30;;;1.00;;
12369;SDS011;6249;52.128;9.986;2023-04-24T04:37:57;3.27;;;0.90;;
12369;SDS011;6249;52.128;9.986;2023-04-24T04:41:20;4.40;;;1.10;;
12369;SDS011;6249;52.128;9.986;2023-04-24T04:44:41;8.20;;;1.40;;
12369;SDS011;6249;52.128;9.986;2023-04-24T04:48:05;2.60;;;1.20;;
12369;SDS011;6249;52.128;9.986;2023-04-24T04:51:29;3.43;;;0.90;;
12369;SDS011;6249;52.128;9.986;2023-04-24T04:54:50;2.27;;;0.70;;
12369;SDS011;6249;52.128;9.986;2023-04-24T04:58:14;2.57;;;0.93;;
12369;SDS011;6249;52.128;9.986;2023-04-24T05:01:37;8.93;;;0.90;;
12369;SDS011;6249;52.128;9.986;2023-04-24T05:05:00;2.20;;;0.80;;
12369;SDS011;6249;52.128;9.986;2023-04-24T05:08:21;3.77;;;1.17;;
12369;SDS011;6249;52.128;9.986;2023-04-24T05:11:44;3.03;;;0.80;;
12369;SDS011;6249;52.128;9.986;2023-04-24T05:15:04;1.80;;;0.63;;
12369;SDS011;6249;52.128;9.986;2023-04-24T05:18:26;4.00;;;0.70;;
12369;SDS011;6249;52.128;9.986;2023-04-24T05:21:46;3.00;;;0.97;;
12369;SDS011;6249;52.128;9.986;2023-04-24T05:25:07;6.60;;;0.70;;
12369;SDS011;6249;52.128;9.986;2023-04-24T05:28:28;1.93;;;0.90;;
12369;SDS011;6249;52.128;9.986;2023-04-24T05:31:49;3.57;;;0.90;;
12369;SDS011;6249;52.128;9.986;2023-04-24T05:35:12;1.90;;;0.57;;
12369;SDS011;6249;52.128;9.986;2023-04-24T05:38:32;2.23;;;0.70;;
12369;SDS011;6249;52.128;9.986;2023-04-24T05:41:53;3.23;;;0.83;;
12369;SDS011;6249;52.128;9.986;2023-04-24T05:45:17;2.30;;;0.60;;
12369;SDS011;6249;52.128;9.986;2023-04-24T05:48:38;2.63;;;0.60;;
12369;SDS011;6249;52.128;9.986;2023-04-24T05:52:01;2.83;;;0.60;;
12369;SDS011;6249;52.128;9.986;2023-04-24T05:55:24;3.13;;;0.80;;
12369;SDS011;6249;52.128;9.986;2023-04-24T05:58:45;1.80;;;0.53;;
12369;SDS011;6249;52.128;9.986;2023-04-24T06:02:08;2.03;;;0.70;;
12369;SDS011;6249;52.128;9.986;2023-04-24T06:05:31;2.47;;;0.93;;
12369;SDS011;6249;52.128;9.986;2023-04-24T06:08:52;2.00;;;0.70;;
12369;SDS011;6249;52.128;9.986;2023-04-24T06:12:15;2.30;;;0.80;;
12369;SDS011;6249;52.128;9.986;2023-04-24T06:15:38;3.60;;;0.60;;
12369;SDS011;6249;52.128;9.986;2023-04-24T06:18:59;3.10;;;0.70;;
12369;SDS011;6249;52.128;9.986;2023-04-24T06:22:22;1.80;;;0.60;;
12369;SDS011;6249;52.128;9.986;2023-04-24T06:25:43;1.70;;;0.53;;
12369;SDS011;6249;52.128;9.986;2023-04-24T06:29:03;2.00;;;0.70;;
12369;SDS011;6249;52.128;9.986;2023-04-24T06:32:25;8.13;;;1.70;;
12369;SDS011;6249;52.128;9.986;2023-04-24T06:35:45;5.53;;;1.50;;
12369;SDS011;6249;52.128;9.986;2023-04-24T06:39:06;4.27;;;1.40;;
12369;SDS011;6249;52.128;9.986;2023-04-24T06:42:26;3.50;;;1.57;;
12369;SDS011;6249;52.128;9.986;2023-04-24T06:45:47;3.30;;;1.63;;
12369;SDS011;6249;52.128;9.986;2023-04-24T06:49:08;4.50;;;1.73;;
12369;SDS011;6249;52.128;9.986;2023-04-24T06:52:31;2.63;;;1.27;;
12369;SDS011;6249;52.128;9.986;2023-04-24T06:55:55;6.43;;;1.73;;
12369;SDS011;6249;52.128;9.986;2023-04-24T06:59:15;6.17;;;1.57;;
12369;SDS011;6249;52.128;9.986;2023-04-24T07:02:36;3.87;;;1.30;;
12369;SDS011;6249;52.128;9.986;2023-04-24T07:05:59;4.10;;;1.73;;
12369;SDS011;6249;52.128;9.986;2023-04-24T07:09:22;4.20;;;2.00;;
12369;SDS011;6249;52.128;9.986;2023-04-24T07:12:47;4.73;;;2.00;;
12369;SDS011;6249;52.128;9.986;2023-04-24T07:16:08;3.47;;;1.80;;
12369;SDS011;6249;52.128;9.986;2023-04-24T07:19:31;5.20;;;1.67;;
12369;SDS011;6249;52.128;9.986;2023-04-24T07:22:53;3.67;;;1.70;;
12369;SDS011;6249;52.128;9.986;2023-04-24T07:26:14;6.40;;;3.30;;
12369;SDS011;6249;52.128;9.986;2023-04-24T07:29:35;4.30;;;2.33;;
12369;SDS011;6249;52.128;9.986;2023-04-24T07:32:56;6.90;;;3.40;;
12369;SDS011;6249;52.128;9.986;2023-04-24T07:36:16;5.50;;;3.40;;
12369;SDS011;6249;52.128;9.986;2023-04-24T07:39:38;5.20;;;3.33;;
12369;SDS011;6249;52.128;9.986;2023-04-24T07:42:59;5.90;;;3.47;;
12369;SDS011;6249;52.128;9.986;2023-04-24T07:46:20;8.73;;;4.43;;
12369;SDS011;6249;52.128;9.986;2023-04-24T07:49:41;8.00;;;4.70;;
12369;SDS011;6249;52.128;9.986;2023-04-24T07:53:02;9.93;;;4.60;;
12369;SDS011;6249;52.128;9.986;2023-04-24T07:56:25;9.60;;;5.17;;
12369;SDS011;6249;52.128;9.986;2023-04-24T07:59:46;8.40;;;4.90;;
12369;SDS011;6249;52.128;9.986;2023-04-24T08:03:06;7.93;;;4.40;;
12369;SDS011;6249;52.128;9.986;2023-04-24T08:06:29;8.37;;;4.67;;
12369;SDS011;6249;52.128;9.986;2023-04-24T08:09:52;6.63;;;4.53;;
12369;SDS011;6249;52.128;9.986;2023-04-24T08:13:13;8.70;;;5.03;;
12369;SDS011;6249;52.128;9.986;2023-04-24T08:16:36;8.07;;;4.50;;
12369;SDS011;6249;52.128;9.986;2023-04-24T08:19:56;10.50;;;4.40;;
12369;SDS011;6249;52.128;9.986;2023-04-24T08:23:21;7.40;;;4.43;;
12369;SDS011;6249;52.128;9.986;2023-04-24T08:26:42;6.03;;;3.57;;
12369;SDS011;6249;52.128;9.986;2023-04-24T08:30:03;3.93;;;2.60;;
12369;SDS011;6249;52.128;9.986;2023-04-24T08:33:24;5.30;;;3.33;;
12369;SDS011;6249;52.128;9.986;2023-04-24T08:36:47;6.77;;;3.20;;
12369;SDS011;6249;52.128;9.986;2023-04-24T08:40:12;5.80;;;2.90;;
12369;SDS011;6249;52.128;9.986;2023-04-24T08:43:34;7.13;;;3.20;;
12369;SDS011;6249;52.128;9.986;2023-04-24T08:46:59;5.20;;;3.13;;
12369;SDS011;6249;52.128;9.986;2023-04-24T08:50:25;5.07;;;2.53;;
12369;SDS011;6249;52.128;9.986;2023-04-24T08:53:46;6.60;;;2.80;;
12369;SDS011;6249;52.128;9.986;2023-04-24T08:57:07;6.87;;;2.93;;
12369;SDS011;6249;52.128;9.986;2023-04-24T09:00:31;5.77;;;2.90;;
12369;SDS011;6249;52.128;9.986;2023-04-24T09:03:52;5.30;;;3.07;;
12369;SDS011;6249;52.128;9.986;2023-04-24T09:07:14;6.57;;;3.53;;
12369;SDS011;6249;52.128;9.986;2023-04-24T09:10:38;6.50;;;3.07;;
12369;SDS011;6249;52.128;9.986;2023-04-24T09:13:59;4.90;;;3.20;;
12369;SDS011;6249;52.128;9.986;2023-04-24T09:17:23;7.80;;;3.20;;
12369;SDS011;6249;52.128;9.986;2023-04-24T09:21:07;8.27;;;3.33;;
12369;SDS011;6249;52.128;9.986;2023-04-24T09:24:29;6.27;;;2.90;;
12369;SDS011;6249;52.128;9.986;2023-04-24T09:27:50;4.27;;;2.40;;
12369;SDS011;6249;52.128;9.986;2023-04-24T09:31:15;5.33;;;2.33;;
12369;SDS011;6249;52.128;9.986;2023-04-24T09:34:39;4.53;;;1.83;;
12369;SDS011;6249;52.128;9.986;2023-04-24T09:38:00;4.63;;;2.80;;
12369;SDS011;6249;52.128;9.986;2023-04-24T09:41:20;5.90;;;2.50;;
12369;SDS011;6249;52.128;9.986;2023-04-24T09:44:41;4.90;;;1.80;;
12369;SDS011;6249;52.128;9.986;2023-04-24T09:48:02;4.00;;;2.20;;
12369;SDS011;6249;52.128;9.986;2023-04-24T09:51:35;3.70;;;2.00;;
12369;SDS011;6249;52.128;9.986;2023-04-24T09:54:59;2.90;;;1.30;;
12369;SDS011;6249;52.128;9.986;2023-04-24T09:58:26;3.63;;;1.70;;
12369;SDS011;6249;52.128;9.986;2023-04-24T10:01:48;4.20;;;1.57;;
12369;SDS011;6249;52.128;9.986;2023-04-24T10:05:10;6.70;;;1.90;;
12369;SDS011;6249;52.128;9.986;2023-04-24T10:08:34;4.23;;;2.00;;
12369;SDS011;6249;52.128;9.986;2023-04-24T10:11:56;4.07;;;1.90;;
12369;SDS011;6249;52.128;9.986;2023-04-24T10:15:16;4.20;;;2.10;;
12369;SDS011;6249;52.128;9.986;2023-04-24T10:18:41;4.40;;;2.03;;
12369;SDS011;6249;52.128;9.986;2023-04-24T10:22:04;4.37;;;2.00;;
12369;SDS011;6249;52.128;9.986;2023-04-24T10:25:29;4.07;;;1.90;;
12369;SDS011;6249;52.128;9.986;2023-04-24T10:28:53;4.00;;;1.87;;
12369;SDS011;6249;52.128;9.986;2023-04-24T10:32:17;3.97;;;2.03;;
12369;SDS011;6249;52.128;9.986;2023-04-24T10:35:39;4.03;;;2.17;;
12369;SDS011;6249;52.128;9.986;2023-04-24T10:39:06;9.40;;;2.27;;
12369;SDS011;6249;52.128;9.986;2023-04-24T10:42:30;5.17;;;1.70;;
12369;SDS011;6249;52.128;9.986;2023-04-24T10:46:01;4.70;;;2.00;;
12369;SDS011;6249;52.128;9.986;2023-04-24T10:49:29;4.47;;;2.40;;
12369;SDS011;6249;52.128;9.986;2023-04-24T10:52:51;4.60;;;2.73;;
12369;SDS011;6249;52.128;9.986;2023-04-24T10:56:15;4.47;;;2.20;;
12369;SDS011;6249;52.128;9.986;2023-04-24T10:59:37;5.67;;;2.73;;
12369;SDS011;6249;52.128;9.986;2023-04-24T11:02:57;4.50;;;2.33;;
12369;SDS011;6249;52.128;9.986;2023-04-24T11:06:18;3.97;;;2.00;;
12369;SDS011;6249;52.128;9.986;2023-04-24T11:09:58;4.07;;;2.30;;
12369;SDS011;6249;52.128;9.986;2023-04-24T11:13:21;4.47;;;2.07;;
12369;SDS011;6249;52.128;9.986;2023-04-24T11:16:52;4.87;;;1.90;;
12369;SDS011;6249;52.128;9.986;2023-04-24T11:20:16;3.60;;;1.50;;
12369;SDS011;6249;52.128;9.986;2023-04-24T11:23:37;3.10;;;1.40;;
12369;SDS011;6249;52.128;9.986;2023-04-24T11:30:24;3.17;;;1.30;;
12369;SDS011;6249;52.128;9.986;2023-04-24T11:33:56;3.03;;;1.40;;
12369;SDS011;6249;52.128;9.986;2023-04-24T11:37:17;2.73;;;1.20;;
12369;SDS011;6249;52.128;9.986;2023-04-24T11:40:37;3.33;;;1.17;;
12369;SDS011;6249;52.128;9.986;2023-04-24T11:43:58;4.63;;;1.50;;
12369;SDS011;6249;52.128;9.986;2023-04-24T11:47:21;4.17;;;1.40;;
12369;SDS011;6249;52.128;9.986;2023-04-24T11:50:50;3.13;;;1.30;;
12369;SDS011;6249;52.128;9.986;2023-04-24T11:54:11;2.70;;;1.40;;
12369;SDS011;6249;52.128;9.986;2023-04-24T11:57:34;4.40;;;1.50;;
12369;SDS011;6249;52.128;9.986;2023-04-24T12:00:58;3.40;;;1.70;;
12369;SDS011;6249;52.128;9.986;2023-04-24T12:04:21;2.47;;;0.90;;
12369;SDS011;6249;52.128;9.986;2023-04-24T12:07:42;4.17;;;1.40;;
12369;SDS011;6249;52.128;9.986;2023-04-24T12:11:04;3.57;;;0.80;;
12369;SDS011;6249;52.128;9.986;2023-04-24T12:14:27;2.17;;;0.60;;
12369;SDS011;6249;52.128;9.986;2023-04-24T12:17:48;3.67;;;1.20;;
12369;SDS011;6249;52.128;9.986;2023-04-24T12:28:24;2.47;;;0.70;;
12369;SDS011;6249;52.128;9.986;2023-04-24T12:31:58;2.90;;;0.90;;
12369;SDS011;6249;52.128;9.986;2023-04-24T12:35:25;2.27;;;0.67;;
12369;SDS011;6249;52.128;9.986;2023-04-24T12:38:52;2.73;;;0.70;;
12369;SDS011;6249;52.128;9.986;2023-04-24T12:42:13;2.33;;;0.80;;
12369;SDS011;6249;52.128;9.986;2023-04-24T12:45:33;2.40;;;0.90;;
12369;SDS011;6249;52.128;9.986;2023-04-24T12:48:54;2.27;;;0.77;;
12369;SDS011;6249;52.128;9.986;2023-04-24T12:52:15;1.80;;;0.50;;
12369;SDS011;6249;52.128;9.986;2023-04-24T12:55:37;2.80;;;1.00;;
12369;SDS011;6249;52.128;9.986;2023-04-24T12:58:58;3.10;;;1.00;;
12369;SDS011;6249;52.128;9.986;2023-04-24T13:02:19;2.20;;;1.00;;
12369;SDS011;6249;52.128;9.986;2023-04-24T13:05:44;2.43;;;0.80;;
12369;SDS011;6249;52.128;9.986;2023-04-24T13:09:05;3.20;;;1.33;;
12369;SDS011;6249;52.128;9.986;2023-04-24T13:12:27;3.27;;;1.43;;
12369;SDS011;6249;52.128;9.986;2023-04-24T13:15:51;3.00;;;1.50;;
12369;SDS011;6249;52.128;9.986;2023-04-24T13:19:12;2.87;;;1.30;;
12369;SDS011;6249;52.128;9.986;2023-04-24T13:22:32;2.53;;;1.03;;
12369;SDS011;6249;52.128;9.986;2023-04-24T13:25:53;3.30;;;0.90;;
12369;SDS011;6249;52.128;9.986;2023-04-24T13:29:18;2.23;;;0.83;;
12369;SDS011;6249;52.128;9.986;2023-04-24T13:32:41;2.00;;;0.70;;
12369;SDS011;6249;52.128;9.986;2023-04-24T13:36:04;2.10;;;0.80;;
12369;SDS011;6249;52.128;9.986;2023-04-24T13:39:25;2.00;;;0.73;;
12369;SDS011;6249;52.128;9.986;2023-04-24T13:42:46;2.23;;;0.80;;
12369;SDS011;6249;52.128;9.986;2023-04-24T13:46:09;2.37;;;0.90;;
12369;SDS011;6249;52.128;9.986;2023-04-24T13:49:34;1.90;;;0.70;;
12369;SDS011;6249;52.128;9.986;2023-04-24T13:52:59;2.10;;;0.50;;
12369;SDS011;6249;52.128;9.986;2023-04-24T13:56:21;2.77;;;0.40;;
12369;SDS011;6249;52.128;9.986;2023-04-24T13:59:42;1.90;;;0.53;;
12369;SDS011;6249;52.128;9.986;2023-04-24T14:03:03;1.80;;;0.50;;
12369;SDS011;6249;52.128;9.986;2023-04-24T14:06:26;1.80;;;0.50;;
12369;SDS011;6249;52.128;9.986;2023-04-24T14:09:47;1.80;;;0.50;;
12369;SDS011;6249;52.128;9.986;2023-04-24T14:13:07;1.60;;;0.50;;
12369;SDS011;6249;52.128;9.986;2023-04-24T14:16:28;1.90;;;0.50;;
12369;SDS011;6249;52.128;9.986;2023-04-24T14:19:50;1.60;;;0.40;;
12369;SDS011;6249;52.128;9.986;2023-04-24T14:23:16;1.80;;;0.50;;
12369;SDS011;6249;52.128;9.986;2023-04-24T14:26:39;1.90;;;0.77;;
12369;SDS011;6249;52.128;9.986;2023-04-24T14:29:59;1.73;;;0.60;;
12369;SDS011;6249;52.128;9.986;2023-04-24T14:33:20;2.50;;;0.80;;
12369;SDS011;6249;52.128;9.986;2023-04-24T14:36:41;2.43;;;0.80;;
12369;SDS011;6249;52.128;9.986;2023-04-24T14:40:02;2.30;;;0.80;;
12369;SDS011;6249;52.128;9.986;2023-04-24T14:43:28;2.40;;;0.90;;
12369;SDS011;6249;52.128;9.986;2023-04-24T14:46:49;1.90;;;0.70;;
12369;SDS011;6249;52.128;9.986;2023-04-24T14:50:10;1.87;;;0.63;;
12369;SDS011;6249;52.128;9.986;2023-04-24T14:53:32;2.73;;;0.97;;
12369;SDS011;6249;52.128;9.986;2023-04-24T14:56:53;5.53;;;0.90;;
12369;SDS011;6249;52.128;9.986;2023-04-24T15:00:17;2.03;;;0.90;;
12369;SDS011;6249;52.128;9.986;2023-04-24T15:03:40;1.97;;;0.87;;
12369;SDS011;6249;52.128;9.986;2023-04-24T15:07:01;3.90;;;1.30;;
12369;SDS011;6249;52.128;9.986;2023-04-24T15:10:22;2.90;;;1.30;;
12369;SDS011;6249;52.128;9.986;2023-04-24T15:13:47;3.77;;;1.60;;
12369;SDS011;6249;52.128;9.986;2023-04-24T15:17:08;4.03;;;1.67;;
12369;SDS011;6249;52.128;9.986;2023-04-24T15:20:31;4.30;;;1.50;;
12369;SDS011;6249;52.128;9.986;2023-04-24T15:23:54;4.73;;;2.17;;
12369;SDS011;6249;52.128;9.986;2023-04-24T15:27:15;5.77;;;2.73;;
12369;SDS011;6249;52.128;9.986;2023-04-24T15:30:35;5.27;;;2.70;;
12369;SDS011;6249;52.128;9.986;2023-04-24T15:33:58;5.67;;;2.97;;
12369;SDS011;6249;52.128;9.986;2023-04-24T15:37:21;7.63;;;2.70;;
12369;SDS011;6249;52.128;9.986;2023-04-24T15:40:42;5.97;;;2.73;;
12369;SDS011;6249;52.128;9.986;2023-04-24T15:44:02;5.87;;;2.47;;
12369;SDS011;6249;52.128;9.986;2023-04-24T15:47:23;5.80;;;2.70;;
12369;SDS011;6249;52.128;9.986;2023-04-24T15:50:45;10.17;;;2.33;;
12369;SDS011;6249;52.128;9.986;2023-04-24T15:54:08;6.80;;;2.20;;
12369;SDS011;6249;52.128;9.986;2023-04-24T15:57:28;6.70;;;3.20;;
12369;SDS011;6249;52.128;9.986;2023-04-24T16:00:51;11.43;;;2.97;;
12369;SDS011;6249;52.128;9.986;2023-04-24T16:04:14;8.33;;;2.63;;
12369;SDS011;6249;52.128;9.986;2023-04-24T16:07:36;13.13;;;3.50;;
12369;SDS011;6249;52.128;9.986;2023-04-24T16:10:57;8.20;;;3.10;;
12369;SDS011;6249;52.128;9.986;2023-04-24T16:14:18;10.27;;;3.10;;
12369;SDS011;6249;52.128;9.986;2023-04-24T16:17:39;4.60;;;3.07;;
12369;SDS011;6249;52.128;9.986;2023-04-24T16:20:59;6.50;;;4.40;;
12369;SDS011;6249;52.128;9.986;2023-04-24T16:24:20;8.83;;;4.60;;
12369;SDS011;6249;52.128;9.986;2023-04-24T16:27:46;11.67;;;4.30;;
12369;SDS011;6249;52.128;9.986;2023-04-24T16:31:09;13.67;;;4.73;;
12369;SDS011;6249;52.128;9.986;2023-04-24T16:34:30;6.30;;;4.10;;
12369;SDS011;6249;52.128;9.986;2023-04-24T16:37:51;10.40;;;5.43;;
12369;SDS011;6249;52.128;9.986;2023-04-24T16:41:14;11.67;;;4.60;;
12369;SDS011;6249;52.128;9.986;2023-04-24T16:44:34;15.20;;;6.10;;
12369;SDS011;6249;52.128;9.986;2023-04-24T16:47:55;11.90;;;4.90;;
12369;SDS011;6249;52.128;9.986;2023-04-24T16:51:18;15.33;;;6.13;;
12369;SDS011;6249;52.128;9.986;2023-04-24T16:54:38;10.70;;;5.47;;
12369;SDS011;6249;52.128;9.986;2023-04-24T16:57:59;12.67;;;6.77;;
12369;SDS011;6249;52.128;9.986;2023-04-24T17:01:22;9.30;;;4.53;;
12369;SDS011;6249;52.128;9.986;2023-04-24T17:04:43;18.17;;;7.23;;
12369;SDS011;6249;52.128;9.986;2023-04-24T17:08:04;14.37;;;5.40;;
12369;SDS011;6249;52.128;9.986;2023-04-24T17:11:25;11.90;;;4.00;;
12369;SDS011;6249;52.128;9.986;2023-04-24T17:14:48;5.57;;;4.00;;
12369;SDS011;6249;52.128;9.986;2023-04-24T17:18:09;6.40;;;3.67;;
12369;SDS011;6249;52.128;9.986;2023-04-24T17:21:32;10.07;;;4.00;;
12369;SDS011;6249;52.128;9.986;2023-04-24T17:24:55;6.40;;;3.03;;
12369;SDS011;6249;52.128;9.986;2023-04-24T17:28:28;10.67;;;3.40;;
12369;SDS011;6249;52.128;9.986;2023-04-24T17:31:50;9.43;;;3.70;;
12369;SDS011;6249;52.128;9.986;2023-04-24T17:35:11;4.63;;;3.00;;
12369;SDS011;6249;52.128;9.986;2023-04-24T17:38:31;5.87;;;2.93;;
12369;SDS011;6249;52.128;9.986;2023-04-24T17:41:55;8.43;;;3.50;;
12369;SDS011;6249;52.128;9.986;2023-04-24T17:45:15;7.70;;;2.83;;
12369;SDS011;6249;52.128;9.986;2023-04-24T17:48:38;7.40;;;2.73;;
12369;SDS011;6249;52.128;9.986;2023-04-24T17:51:59;6.27;;;2.60;;
12369;SDS011;6249;52.128;9.986;2023-04-24T17:55:21;7.60;;;2.30;;
12369;SDS011;6249;52.128;9.986;2023-04-24T17:58:42;5.27;;;2.40;;
12369;SDS011;6249;52.128;9.986;2023-04-24T18:02:03;6.30;;;2.33;;
12369;SDS011;6249;52.128;9.986;2023-04-24T18:05:26;6.50;;;2.37;;
12369;SDS011;6249;52.128;9.986;2023-04-24T18:08:50;5.70;;;1.93;;
12369;SDS011;6249;52.128;9.986;2023-04-24T18:12:11;6.30;;;1.70;;
12369;SDS011;6249;52.128;9.986;2023-04-24T18:15:31;7.30;;;3.10;;
12369;SDS011;6249;52.128;9.986;2023-04-24T18:18:54;8.43;;;2.90;;
12369;SDS011;6249;52.128;9.986;2023-04-24T18:22:17;5.93;;;2.00;;
12369;SDS011;6249;52.128;9.986;2023-04-24T18:25:38;7.87;;;2.90;;
12369;SDS011;6249;52.128;9.986;2023-04-24T18:29:03;4.77;;;2.13;;
12369;SDS011;6249;52.128;9.986;2023-04-24T18:32:24;4.70;;;2.17;;
12369;SDS011;6249;52.128;9.986;2023-04-24T18:35:45;4.43;;;2.07;;
12369;SDS011;6249;52.128;9.986;2023-04-24T18:39:06;7.93;;;1.90;;
12369;SDS011;6249;52.128;9.986;2023-04-24T18:42:26;8.57;;;2.57;;
12369;SDS011;6249;52.128;9.986;2023-04-24T18:45:47;5.73;;;3.00;;
12369;SDS011;6249;52.128;9.986;2023-04-24T18:49:07;8.60;;;2.73;;
12369;SDS011;6249;52.128;9.986;2023-04-24T18:52:30;5.50;;;2.47;;
12369;SDS011;6249;52.128;9.986;2023-04-24T18:55:51;5.10;;;2.97;;
12369;SDS011;6249;52.128;9.986;2023-04-24T18:59:14;7.77;;;3.20;;
12369;SDS011;6249;52.128;9.986;2023-04-24T19:02:36;8.77;;;3.60;;
12369;SDS011;6249;52.128;9.986;2023-04-24T19:05:57;8.50;;;4.03;;
12369;SDS011;6249;52.128;9.986;2023-04-24T19:09:20;7.10;;;3.27;;
12369;SDS011;6249;52.128;9.986;2023-04-24T19:12:41;7.37;;;2.90;;
12369;SDS011;6249;52.128;9.986;2023-04-24T19:16:01;4.60;;;2.30;;
12369;SDS011;6249;52.128;9.986;2023-04-24T19:19:22;6.87;;;2.67;;
12369;SDS011;6249;52.128;9.986;2023-04-24T19:22:45;6.70;;;3.43;;
12369;SDS011;6249;52.128;9.986;2023-04-24T19:26:06;6.93;;;3.10;;
12369;SDS011;6249;52.128;9.986;2023-04-24T19:29:29;7.17;;;3.20;;
12369;SDS011;6249;52.128;9.986;2023-04-24T19:32:50;4.97;;;2.50;;
12369;SDS011;6249;52.128;9.986;2023-04-24T19:36:10;6.23;;;2.53;;
12369;SDS011;6249;52.128;9.986;2023-04-24T19:39:31;9.70;;;2.77;;
12369;SDS011;6249;52.128;9.986;2023-04-24T19:42:52;9.53;;;2.67;;
12369;SDS011;6249;52.128;9.986;2023-04-24T19:46:12;9.83;;;3.20;;
12369;SDS011;6249;52.128;9.986;2023-04-24T19:49:35;6.97;;;2.60;;
12369;SDS011;6249;52.128;9.986;2023-04-24T19:52:56;9.60;;;2.93;;
12369;SDS011;6249;52.128;9.986;2023-04-24T19:56:17;6.73;;;2.60;;
12369;SDS011;6249;52.128;9.986;2023-04-24T19:59:37;8.93;;;2.97;;
12369;SDS011;6249;52.128;9.986;2023-04-24T20:02:58;7.43;;;2.73;;
12369;SDS011;6249;52.128;9.986;2023-04-24T20:06:21;6.90;;;2.43;;
12369;SDS011;6249;52.128;9.986;2023-04-24T20:09:42;11.67;;;3.13;;
12369;SDS011;6249;52.128;9.986;2023-04-24T20:13:03;11.50;;;3.47;;
12369;SDS011;6249;52.128;9.986;2023-04-24T20:16:23;6.93;;;3.10;;
12369;SDS011;6249;52.128;9.986;2023-04-24T20:19:44;10.20;;;3.00;;
12369;SDS011;6249;52.128;9.986;2023-04-24T20:23:07;12.33;;;3.87;;
12369;SDS011;6249;52.128;9.986;2023-04-24T20:26:28;10.77;;;2.80;;
12369;SDS011;6249;52.128;9.986;2023-04-24T20:29:49;19.80;;;3.30;;
12369;SDS011;6249;52.128;9.986;2023-04-24T20:33:09;8.77;;;2.50;;
12369;SDS011;6249;52.128;9.986;2023-04-24T20:36:30;18.93;;;3.43;;
12369;SDS011;6249;52.128;9.986;2023-04-24T20:39:52;7.17;;;2.70;;
12369;SDS011;6249;52.128;9.986;2023-04-24T20:43:13;11.73;;;3.53;;
12369;SDS011;6249;52.128;9.986;2023-04-24T20:46:36;8.87;;;3.40;;